Time;durP1;ratioP1;P1;durP2;ratioP2;P2;SDS_P1;SDS_P2;PMS_P1;PMS_P2;Temp;Humidity;BMP_temperature;BMP_pressure;BME280_temperature;BME280_humidity;BME280_pressure;Samples;Min_cycle;Max_cycle;Signal;HPM_P1;HPM_P2
2021/09/19 00:01:35;;;;;;;17.00;4.38;;;;;;;;;;4955030;28;20038;-80
2021/09/19 00:04:01;;;;;;;18.88;4.55;;;;;;;;;;4969949;28;20066;-81
2021/09/19 00:06:28;;;;;;;18.33;4.63;;;;;;;;;;4954101;28;20030;-81
2021/09/19 00:08:54;;;;;;;19.65;4.38;;;;;;;;;;4937470;28;20039;-81
2021/09/19 00:11:21;;;;;;;20.10;4.35;;;;;;;;;;4952272;28;20034;-81
2021/09/19 00:13:47;;;;;;;18.15;4.32;;;;;;;;;;4970273;28;20054;-81
2021/09/19 00:16:13;;;;;;;14.70;3.15;;;;;;;;;;4955202;28;20103;-82
2021/09/19 00:18:40;;;;;;;19.77;4.70;;;;;;;;;;4953527;28;20030;-82
2021/09/19 00:21:06;;;;;;;19.67;4.28;;;;;;;;;;4958405;28;20073;-81
2021/09/19 00:23:32;;;;;;;18.85;4.55;;;;;;;;;;4953234;28;20066;-81
2021/09/19 00:25:58;;;;;;;15.70;3.67;;;;;;;;;;4974297;28;20036;-80
2021/09/19 00:28:24;;;;;;;18.00;4.18;;;;;;;;;;4947359;28;20048;-80
2021/09/19 00:30:51;;;;;;;22.05;4.55;;;;;;;;;;4960222;28;20121;-81
2021/09/19 00:33:17;;;;;;;14.27;4.45;;;;;;;;;;4960018;28;20041;-81
2021/09/19 00:35:43;;;;;;;21.27;4.60;;;;;;;;;;4950985;28;20038;-81
2021/09/19 00:38:10;;;;;;;19.63;4.72;;;;;;;;;;4958399;28;20030;-80
2021/09/19 00:40:37;;;;;;;19.13;4.15;;;;;;;;;;4949315;28;20051;-80
2021/09/19 00:43:03;;;;;;;13.40;3.40;;;;;;;;;;4971847;28;20427;-81
2021/09/19 00:45:29;;;;;;;20.65;4.30;;;;;;;;;;4936884;28;20037;-80
2021/09/19 00:47:55;;;;;;;17.00;4.05;;;;;;;;;;4945341;28;20742;-80
2021/09/19 00:50:24;;;;;;;15.13;3.30;;;;;;;;;;4955134;28;20046;-82
2021/09/19 00:52:51;;;;;;;20.02;3.50;;;;;;;;;;4965656;28;20936;-80
2021/09/19 00:55:17;;;;;;;15.77;3.53;;;;;;;;;;4965369;28;20144;-80
2021/09/19 00:57:51;;;;;;;15.43;3.70;;;;;;;;;;4964723;28;22776;-81
2021/09/19 01:00:19;;;;;;;20.70;4.03;;;;;;;;;;4962815;28;20052;-81
2021/09/19 01:02:45;;;;;;;23.02;3.75;;;;;;;;;;4954981;28;20035;-81
2021/09/19 01:05:12;;;;;;;19.13;3.97;;;;;;;;;;4959259;28;20053;-81
2021/09/19 01:07:39;;;;;;;20.17;5.03;;;;;;;;;;4957293;28;20073;-81
2021/09/19 01:10:05;;;;;;;20.25;4.40;;;;;;;;;;4973727;28;20057;-81
2021/09/19 01:12:33;;;;;;;19.30;4.50;;;;;;;;;;4956802;28;20033;-80
2021/09/19 01:14:59;;;;;;;19.55;4.95;;;;;;;;;;4977925;28;20081;-82
2021/09/19 01:17:25;;;;;;;18.08;4.57;;;;;;;;;;4973043;28;20041;-80
2021/09/19 01:19:55;;;;;;;19.02;4.55;;;;;;;;;;4964343;28;20038;-80
2021/09/19 01:22:29;;;;;;;19.00;4.18;;;;;;;;;;4977682;28;20506;-81
2021/09/19 01:24:56;;;;;;;18.60;4.40;;;;;;;;;;4965900;28;20039;-80
2021/09/19 01:27:22;;;;;;;19.92;4.82;;;;;;;;;;4958425;28;20023;-80
2021/09/19 01:29:48;;;;;;;21.60;4.93;;;;;;;;;;4958307;28;20030;-81
2021/09/19 01:32:21;;;;;;;16.80;3.60;;;;;;;;;;4962233;28;20034;-79
2021/09/19 01:34:48;;;;;;;17.52;3.75;;;;;;;;;;4955847;28;20038;-81
2021/09/19 01:37:14;;;;;;;17.92;4.20;;;;;;;;;;4962020;28;20035;-80
2021/09/19 01:39:40;;;;;;;18.60;4.60;;;;;;;;;;4973776;28;20176;-81
2021/09/19 01:42:06;;;;;;;15.15;4.50;;;;;;;;;;4960909;28;20031;-81
2021/09/19 01:44:33;;;;;;;17.15;4.25;;;;;;;;;;4972524;28;20096;-82
2021/09/19 01:47:00;;;;;;;19.35;4.00;;;;;;;;;;4959468;28;20096;-79
2021/09/19 01:49:26;;;;;;;19.50;4.22;;;;;;;;;;4959175;28;20067;-82
2021/09/19 01:51:53;;;;;;;21.90;4.05;;;;;;;;;;4976154;28;20035;-81
2021/09/19 01:54:23;;;;;;;18.83;4.20;;;;;;;;;;4964411;28;20073;-81
2021/09/19 01:56:49;;;;;;;20.58;4.55;;;;;;;;;;4976389;28;20496;-80
2021/09/19 01:59:15;;;;;;;19.30;4.07;;;;;;;;;;4962700;28;20035;-81
2021/09/19 02:01:42;;;;;;;20.58;3.63;;;;;;;;;;4959614;28;20038;-80
2021/09/19 02:04:08;;;;;;;16.25;3.80;;;;;;;;;;4960877;28;20034;-80
2021/09/19 02:06:34;;;;;;;20.15;4.13;;;;;;;;;;4975869;28;20041;-80
2021/09/19 02:09:00;;;;;;;18.88;3.50;;;;;;;;;;4977668;28;20045;-80
2021/09/19 02:11:28;;;;;;;15.73;4.10;;;;;;;;;;4959886;28;20043;-80
2021/09/19 02:13:54;;;;;;;20.75;4.40;;;;;;;;;;4996207;28;20038;-80
2021/09/19 02:16:21;;;;;;;20.75;4.50;;;;;;;;;;4977755;28;20045;-80
2021/09/19 02:18:51;;;;;;;14.82;3.53;;;;;;;;;;4968174;28;20033;-81
2021/09/19 02:21:18;;;;;;;23.30;4.57;;;;;;;;;;4965942;28;20030;-82
2021/09/19 02:23:44;;;;;;;25.27;4.63;;;;;;;;;;4962548;28;20100;-82
2021/09/19 02:26:10;;;;;;;19.60;4.60;;;;;;;;;;4965633;28;20994;-79
2021/09/19 02:28:36;;;;;;;21.33;4.18;;;;;;;;;;4960540;28;20471;-80
2021/09/19 02:31:02;;;;;;;20.75;4.28;;;;;;;;;;4977103;28;20035;-80
2021/09/19 02:33:29;;;;;;;23.83;4.15;;;;;;;;;;4955901;28;20097;-79
2021/09/19 02:35:55;;;;;;;21.50;4.28;;;;;;;;;;4962747;28;20058;-80
2021/09/19 02:38:22;;;;;;;19.23;3.90;;;;;;;;;;4961747;28;20041;-79
2021/09/19 02:40:51;;;;;;;21.42;4.78;;;;;;;;;;4959082;28;20462;-79
2021/09/19 02:43:17;;;;;;;16.52;3.38;;;;;;;;;;4963170;28;20042;-79
2021/09/19 02:45:43;;;;;;;20.88;4.40;;;;;;;;;;4969610;28;20034;-81
2021/09/19 02:48:09;;;;;;;22.33;3.97;;;;;;;;;;4976710;28;20089;-81
2021/09/19 02:50:36;;;;;;;25.98;4.38;;;;;;;;;;4960496;28;20069;-80
2021/09/19 02:53:02;;;;;;;21.52;4.78;;;;;;;;;;4960912;28;20033;-81
2021/09/19 02:55:28;;;;;;;16.45;4.60;;;;;;;;;;4971608;28;20046;-80
2021/09/19 02:57:54;;;;;;;17.45;3.67;;;;;;;;;;4976530;28;20161;-81
2021/09/19 03:00:21;;;;;;;19.60;4.82;;;;;;;;;;4961910;28;20089;-81
2021/09/19 03:02:48;;;;;;;22.73;4.38;;;;;;;;;;4967738;28;20069;-80
2021/09/19 03:05:14;;;;;;;17.20;4.13;;;;;;;;;;4960919;28;20074;-81
2021/09/19 03:07:40;;;;;;;16.98;3.88;;;;;;;;;;4958038;28;20041;-81
2021/09/19 03:10:07;;;;;;;16.98;3.75;;;;;;;;;;4959688;28;20898;-80
2021/09/19 03:12:33;;;;;;;22.10;3.70;;;;;;;;;;4975051;28;20048;-80
2021/09/19 03:14:59;;;;;;;24.67;4.38;;;;;;;;;;4961324;28;20055;-79
2021/09/19 03:17:25;;;;;;;17.25;4.13;;;;;;;;;;4970507;28;20086;-80
2021/09/19 03:19:51;;;;;;;22.23;4.22;;;;;;;;;;4961884;28;20321;-78
2021/09/19 03:22:17;;;;;;;17.02;4.07;;;;;;;;;;4960979;28;20062;-80
2021/09/19 03:24:44;;;;;;;14.30;3.88;;;;;;;;;;4957081;28;20077;-80
2021/09/19 03:27:10;;;;;;;21.75;4.38;;;;;;;;;;4960792;28;20023;-81
2021/09/19 03:29:36;;;;;;;18.27;4.00;;;;;;;;;;4956470;28;20031;-80
2021/09/19 03:32:02;;;;;;;23.52;4.30;;;;;;;;;;4960007;28;20038;-80
2021/09/19 03:34:29;;;;;;;19.63;4.72;;;;;;;;;;4953694;28;20069;-79
2021/09/19 03:36:55;;;;;;;15.65;3.58;;;;;;;;;;4959727;28;20121;-82
2021/09/19 03:39:22;;;;;;;20.75;3.65;;;;;;;;;;4961140;28;20149;-82
2021/09/19 03:41:48;;;;;;;18.30;4.00;;;;;;;;;;4957352;28;20034;-79
2021/09/19 03:44:14;;;;;;;19.38;3.75;;;;;;;;;;4960502;28;20129;-81
2021/09/19 03:46:40;;;;;;;20.85;4.75;;;;;;;;;;4955521;28;20035;-80
2021/09/19 03:49:06;;;;;;;17.70;4.00;;;;;;;;;;4960510;28;20034;-80
2021/09/19 03:51:32;;;;;;;19.77;4.10;;;;;;;;;;4957021;28;20034;-79
2021/09/19 03:53:58;;;;;;;20.60;4.13;;;;;;;;;;4961189;28;20841;-79
2021/09/19 03:56:25;;;;;;;20.58;3.45;;;;;;;;;;4955751;28;20125;-80
2021/09/19 03:58:51;;;;;;;16.20;3.42;;;;;;;;;;4959939;28;20046;-79
2021/09/19 04:01:17;;;;;;;17.42;3.20;;;;;;;;;;4958861;28;20038;-78
2021/09/19 04:03:43;;;;;;;20.83;4.00;;;;;;;;;;4970799;28;20921;-82
2021/09/19 04:06:09;;;;;;;17.88;3.30;;;;;;;;;;4960830;28;20080;-80
2021/09/19 04:08:36;;;;;;;16.52;3.35;;;;;;;;;;4956041;28;20039;-80
2021/09/19 04:11:02;;;;;;;13.82;3.30;;;;;;;;;;4964278;28;20093;-80
2021/09/19 04:13:28;;;;;;;20.10;3.80;;;;;;;;;;4957187;28;20069;-80
2021/09/19 04:15:55;;;;;;;19.00;4.40;;;;;;;;;;4978674;28;20042;-79
2021/09/19 04:18:22;;;;;;;18.13;4.00;;;;;;;;;;4980436;28;20034;-80
2021/09/19 04:20:48;;;;;;;17.48;3.88;;;;;;;;;;4980308;28;20109;-81
2021/09/19 04:23:14;;;;;;;21.48;4.47;;;;;;;;;;4979074;28;20129;-80
2021/09/19 04:25:40;;;;;;;21.35;4.05;;;;;;;;;;4965273;28;20041;-80
2021/09/19 04:28:06;;;;;;;11.80;3.03;;;;;;;;;;4979839;28;20062;-80
2021/09/19 04:30:32;;;;;;;18.30;3.90;;;;;;;;;;4974221;28;20031;-79
2021/09/19 04:32:59;;;;;;;16.92;4.07;;;;;;;;;;4980056;28;20089;-79
2021/09/19 04:35:25;;;;;;;14.13;3.35;;;;;;;;;;4963482;28;20069;-79
2021/09/19 04:37:51;;;;;;;15.55;3.55;;;;;;;;;;4980623;28;20035;-80
2021/09/19 04:40:17;;;;;;;15.80;4.07;;;;;;;;;;4976941;28;20625;-79
2021/09/19 04:42:44;;;;;;;17.55;4.05;;;;;;;;;;4974780;28;21281;-82
2021/09/19 04:45:10;;;;;;;15.63;4.07;;;;;;;;;;4966168;28;20026;-79
2021/09/19 04:47:36;;;;;;;22.90;4.53;;;;;;;;;;4961053;28;20045;-79
2021/09/19 04:50:03;;;;;;;23.50;4.38;;;;;;;;;;4966889;28;20170;-79
2021/09/19 04:52:29;;;;;;;18.67;4.07;;;;;;;;;;4962548;28;20041;-80
2021/09/19 04:54:55;;;;;;;19.95;4.35;;;;;;;;;;4963157;28;20172;-80
2021/09/19 04:57:22;;;;;;;21.20;4.45;;;;;;;;;;4964458;28;20145;-80
2021/09/19 04:59:48;;;;;;;20.35;4.40;;;;;;;;;;4963421;28;20039;-81
2021/09/19 05:02:14;;;;;;;17.00;4.47;;;;;;;;;;4961695;28;20736;-80
2021/09/19 05:04:41;;;;;;;20.10;4.53;;;;;;;;;;4959302;28;20039;-79
2021/09/19 05:07:07;;;;;;;18.85;4.88;;;;;;;;;;4978175;28;20038;-80
2021/09/19 05:09:33;;;;;;;20.10;4.57;;;;;;;;;;4959116;28;20030;-82
2021/09/19 05:11:59;;;;;;;16.77;3.90;;;;;;;;;;4967507;28;20033;-79
2021/09/19 05:14:26;;;;;;;13.93;3.85;;;;;;;;;;4969563;28;20053;-80
2021/09/19 05:16:52;;;;;;;15.95;3.67;;;;;;;;;;4962676;28;20041;-80
2021/09/19 05:19:19;;;;;;;17.50;3.65;;;;;;;;;;4963077;28;20030;-80
2021/09/19 05:21:45;;;;;;;16.45;3.78;;;;;;;;;;4961988;28;20763;-81
2021/09/19 05:24:11;;;;;;;16.77;3.38;;;;;;;;;;4978107;28;20042;-80
2021/09/19 05:26:37;;;;;;;15.05;4.03;;;;;;;;;;4957747;28;20034;-82
2021/09/19 05:29:03;;;;;;;16.55;3.70;;;;;;;;;;4963423;28;20118;-80
2021/09/19 05:31:30;;;;;;;14.80;3.47;;;;;;;;;;4957656;28;20041;-80
2021/09/19 05:33:57;;;;;;;20.20;3.92;;;;;;;;;;4963566;28;20054;-80
2021/09/19 05:36:24;;;;;;;14.00;3.15;;;;;;;;;;4978825;28;20022;-80
2021/09/19 05:38:51;;;;;;;15.88;3.58;;;;;;;;;;4965237;28;20128;-81
2021/09/19 05:41:17;;;;;;;15.15;3.80;;;;;;;;;;4972446;28;20051;-80
2021/09/19 05:43:44;;;;;;;17.17;3.10;;;;;;;;;;4957908;28;21442;-80
2021/09/19 05:46:10;;;;;;;16.58;3.22;;;;;;;;;;4965628;28;20038;-79
2021/09/19 05:48:36;;;;;;;17.50;2.72;;;;;;;;;;4961969;28;20034;-79
2021/09/19 05:51:03;;;;;;;16.98;3.30;;;;;;;;;;4963114;28;20034;-80
2021/09/19 05:53:29;;;;;;;18.05;2.92;;;;;;;;;;4958945;28;20427;-79
2021/09/19 05:55:56;;;;;;;16.27;3.22;;;;;;;;;;4976640;28;20067;-80
2021/09/19 05:58:22;;;;;;;17.85;2.75;;;;;;;;;;4980582;28;20042;-79
2021/09/19 06:00:48;;;;;;;16.00;2.97;;;;;;;;;;4975795;28;20030;-82
2021/09/19 06:03:14;;;;;;;16.15;2.83;;;;;;;;;;4962161;28;20045;-82
2021/09/19 06:05:40;;;;;;;19.20;3.05;;;;;;;;;;4959871;28;20066;-82
2021/09/19 06:08:06;;;;;;;;;;;;;;;;;;4963184;28;20138;-82
2021/09/19 06:10:33;;;;;;;20.38;2.95;;;;;;;;;;4953183;28;19918;-82
2021/09/19 06:12:59;;;;;;;21.73;3.50;;;;;;;;;;4940809;28;20128;-79
2021/09/19 06:15:25;;;;;;;15.82;2.83;;;;;;;;;;4955592;28;20045;-82
2021/09/19 06:17:51;;;;;;;17.35;3.20;;;;;;;;;;4957953;28;20042;-80
2021/09/19 06:20:17;;;;;;;20.75;2.95;;;;;;;;;;4957580;28;20673;-80
2021/09/19 06:22:43;;;;;;;15.27;2.67;;;;;;;;;;4956437;28;22680;-80
2021/09/19 06:25:09;;;;;;;;;;;;;;;;;;4966259;28;20057;-80
2021/09/19 06:27:36;;;;;;;16.85;2.75;;;;;;;;;;4982266;28;19898;-80
2021/09/19 06:30:02;;;;;;;16.55;2.33;;;;;;;;;;4994292;28;20287;-79
2021/09/19 06:32:28;;;;;;;16.20;2.70;;;;;;;;;;4965620;28;20043;-82
2021/09/19 06:34:55;;;;;;;16.90;2.58;;;;;;;;;;4982353;28;20545;-81
2021/09/19 06:37:21;;;;;;;16.52;3.08;;;;;;;;;;4964807;28;20900;-80
2021/09/19 06:39:47;;;;;;;14.65;2.53;;;;;;;;;;4958917;28;20053;-80
2021/09/19 06:42:13;;;;;;;17.33;2.83;;;;;;;;;;4978433;28;20329;-80
2021/09/19 06:44:39;;;;;;;15.80;2.67;;;;;;;;;;4959689;28;20039;-80
2021/09/19 06:47:05;;;;;;;12.68;2.53;;;;;;;;;;4963467;28;20471;-82
2021/09/19 06:49:32;;;;;;;20.70;3.20;;;;;;;;;;4970641;28;20441;-80
2021/09/19 06:51:58;;;;;;;15.15;2.55;;;;;;;;;;4964482;28;20056;-81
2021/09/19 06:54:25;;;;;;;17.25;2.88;;;;;;;;;;4974299;28;20057;-80
2021/09/19 06:56:52;;;;;;;15.93;2.70;;;;;;;;;;4980840;28;20058;-82
2021/09/19 06:59:18;;;;;;;16.55;2.33;;;;;;;;;;4960848;28;20049;-81
2021/09/19 07:01:45;;;;;;;13.93;2.30;;;;;;;;;;4968591;28;20049;-82
2021/09/19 07:04:11;;;;;;;15.32;2.30;;;;;;;;;;4965655;28;20061;-81
2021/09/19 07:06:37;;;;;;;12.05;2.33;;;;;;;;;;4951986;28;20038;-81
2021/09/19 07:09:03;;;;;;;20.77;3.53;;;;;;;;;;4982741;28;20369;-81
2021/09/19 07:11:30;;;;;;;17.45;2.72;;;;;;;;;;4956272;28;20034;-79
2021/09/19 07:13:57;;;;;;;21.17;2.92;;;;;;;;;;4979276;28;20050;-82
2021/09/19 07:16:23;;;;;;;23.55;3.22;;;;;;;;;;4967056;28;20090;-81
2021/09/19 07:18:49;;;;;;;15.38;2.88;;;;;;;;;;4975142;28;20039;-81
2021/09/19 07:21:15;;;;;;;17.27;3.08;;;;;;;;;;4964929;28;20041;-82
2021/09/19 07:23:41;;;;;;;19.73;3.20;;;;;;;;;;4955774;28;20519;-81
2021/09/19 07:26:07;;;;;;;15.40;2.63;;;;;;;;;;4961030;28;20031;-81
2021/09/19 07:28:34;;;;;;;17.55;3.08;;;;;;;;;;4957462;28;20037;-81
2021/09/19 07:31:00;;;;;;;15.23;2.72;;;;;;;;;;4961741;28;20108;-81
2021/09/19 07:33:26;;;;;;;17.65;2.42;;;;;;;;;;4962196;28;20022;-81
2021/09/19 07:35:53;;;;;;;16.73;2.45;;;;;;;;;;4958167;28;20041;-82
2021/09/19 07:38:20;;;;;;;17.00;2.50;;;;;;;;;;4974995;28;20762;-80
2021/09/19 07:40:46;;;;;;;12.93;2.10;;;;;;;;;;4955795;28;20050;-81
2021/09/19 07:43:13;;;;;;;11.63;2.10;;;;;;;;;;4958013;28;20637;-81
2021/09/19 07:45:39;;;;;;;15.88;3.58;;;;;;;;;;4959461;28;20034;-81
2021/09/19 07:48:09;;;;;;;14.55;2.22;;;;;;;;;;4959642;28;20015;-80
2021/09/19 07:50:36;;;;;;;15.50;2.40;;;;;;;;;;4954898;28;20109;-81
2021/09/19 07:53:02;;;;;;;17.67;2.35;;;;;;;;;;4960116;28;20042;-82
2021/09/19 07:55:29;;;;;;;13.02;2.22;;;;;;;;;;4963014;28;20125;-81
2021/09/19 07:57:55;;;;;;;14.07;2.50;;;;;;;;;;4981813;28;20378;-81
2021/09/19 08:00:22;;;;;;;15.13;2.20;;;;;;;;;;4978933;28;20609;-81
2021/09/19 08:02:48;;;;;;;14.00;2.45;;;;;;;;;;4976320;28;20034;-81
2021/09/19 08:05:15;;;;;;;11.63;2.13;;;;;;;;;;4963094;28;20038;-81
2021/09/19 08:07:42;;;;;;;16.27;2.53;;;;;;;;;;4957160;28;20035;-82
2021/09/19 08:10:09;;;;;;;14.35;2.33;;;;;;;;;;4963112;28;20035;-82
2021/09/19 08:12:35;;;;;;;14.23;2.70;;;;;;;;;;4960188;28;20023;-82
2021/09/19 08:15:01;;;;;;;11.63;2.00;;;;;;;;;;4981103;28;20030;-82
2021/09/19 08:17:27;;;;;;;13.68;2.15;;;;;;;;;;4964280;28;20061;-80
2021/09/19 08:19:53;;;;;;;14.90;2.60;;;;;;;;;;4982276;28;20050;-81
2021/09/19 08:22:20;;;;;;;12.50;2.30;;;;;;;;;;4964726;28;20049;-81
2021/09/19 08:24:46;;;;;;;12.23;2.35;;;;;;;;;;4972111;28;20030;-80
2021/09/19 08:27:12;;;;;;;11.63;2.25;;;;;;;;;;4968736;28;20558;-81
2021/09/19 08:29:38;;;;;;;14.45;2.60;;;;;;;;;;4962131;28;20128;-80
2021/09/19 08:32:05;;;;;;;12.20;2.05;;;;;;;;;;4979476;28;20108;-81
2021/09/19 08:34:31;;;;;;;11.20;2.08;;;;;;;;;;4958968;28;20042;-80
2021/09/19 08:36:57;;;;;;;13.88;2.17;;;;;;;;;;4967566;28;20042;-80
2021/09/19 08:39:23;;;;;;;11.68;2.17;;;;;;;;;;4965694;28;20038;-81
2021/09/19 08:41:50;;;;;;;11.05;1.83;;;;;;;;;;4965070;28;20503;-81
2021/09/19 08:44:20;;;;;;;14.60;2.25;;;;;;;;;;4964319;28;20044;-83
2021/09/19 08:46:46;;;;;;;15.20;2.33;;;;;;;;;;4961210;28;20552;-82
2021/09/19 08:49:14;;;;;;;13.30;2.13;;;;;;;;;;4960726;28;20036;-80
2021/09/19 08:51:40;;;;;;;15.48;2.58;;;;;;;;;;4966789;28;20034;-82
2021/09/19 08:54:07;;;;;;;13.80;2.70;;;;;;;;;;4961871;28;20049;-83
2021/09/19 08:56:33;;;;;;;13.20;2.45;;;;;;;;;;4973081;28;20205;-81
2021/09/19 08:58:59;;;;;;;13.48;2.47;;;;;;;;;;4974950;28;20045;-81
2021/09/19 09:01:25;;;;;;;11.13;2.53;;;;;;;;;;4959777;28;20077;-81
2021/09/19 09:03:51;;;;;;;15.32;2.97;;;;;;;;;;4966986;28;20056;-81
2021/09/19 09:06:18;;;;;;;13.60;2.67;;;;;;;;;;4965374;28;20114;-82
2021/09/19 09:08:45;;;;;;;15.95;3.75;;;;;;;;;;4957595;28;20505;-82
2021/09/19 09:11:11;;;;;;;15.15;2.95;;;;;;;;;;4964147;28;20141;-81
2021/09/19 09:13:41;;;;;;;16.67;3.83;;;;;;;;;;4958523;28;21493;-81
2021/09/19 09:16:27;;;;;;;15.35;2.53;;;;;;;;;;4966240;28;20433;-80
2021/09/19 09:18:53;;;;;;;17.40;2.53;;;;;;;;;;4961881;28;20042;-82
2021/09/19 09:21:23;;;;;;;13.52;2.60;;;;;;;;;;4973489;28;20097;-80
2021/09/19 09:23:55;;;;;;;13.68;2.58;;;;;;;;;;4963822;28;20061;-82
2021/09/19 09:26:50;;;;;;;12.82;2.55;;;;;;;;;;4974575;28;20507;-82
2021/09/19 09:29:17;;;;;;;12.23;2.10;;;;;;;;;;4947743;28;20045;-81
2021/09/19 09:31:44;;;;;;;12.85;2.58;;;;;;;;;;4961018;28;20026;-80
2021/09/19 09:34:15;;;;;;;12.07;2.88;;;;;;;;;;4970693;28;20129;-81
2021/09/19 09:36:41;;;;;;;17.88;2.60;;;;;;;;;;4975355;28;20099;-81
2021/09/19 09:39:28;;;;;;;12.50;2.40;;;;;;;;;;4960310;28;20543;-80
2021/09/19 09:41:57;;;;;;;;;;;;;;;;;;4960044;28;20046;-81
2021/09/19 09:44:27;;;;;;;15.57;2.50;;;;;;;;;;4963291;28;20809;-82
2021/09/19 09:46:54;;;;;;;15.23;2.42;;;;;;;;;;4960033;28;20034;-81
2021/09/19 09:49:22;;;;;;;16.13;2.58;;;;;;;;;;4962436;28;20033;-82
2021/09/19 09:51:48;;;;;;;11.75;2.60;;;;;;;;;;4956313;28;20027;-79
2021/09/19 09:54:15;;;;;;;12.30;2.30;;;;;;;;;;4961735;28;20034;-81
2021/09/19 09:56:44;;;;;;;13.43;2.65;;;;;;;;;;4974906;28;20039;-81
2021/09/19 09:59:11;;;;;;;13.38;2.88;;;;;;;;;;4963619;28;20047;-81
2021/09/19 10:01:38;;;;;;;15.63;2.53;;;;;;;;;;4958525;28;20038;-82
2021/09/19 10:04:05;;;;;;;10.05;2.33;;;;;;;;;;4975054;28;20038;-82
2021/09/19 10:06:31;;;;;;;12.77;2.67;;;;;;;;;;4959823;28;20100;-81
2021/09/19 10:08:58;;;;;;;11.45;2.13;;;;;;;;;;4957447;28;20034;-82
2021/09/19 10:11:24;;;;;;;10.93;2.15;;;;;;;;;;4954540;28;20183;-81
2021/09/19 10:13:51;;;;;;;12.45;2.25;;;;;;;;;;4971964;28;21018;-81
2021/09/19 10:16:17;;;;;;;9.25;1.92;;;;;;;;;;4974748;28;20030;-81
2021/09/19 10:18:50;;;;;;;12.25;3.08;;;;;;;;;;4952048;28;20109;-79
2021/09/19 10:21:18;;;;;;;14.23;2.85;;;;;;;;;;4959177;28;20360;-80
2021/09/19 10:23:45;;;;;;;12.15;2.60;;;;;;;;;;4953913;28;20101;-82
2021/09/19 10:26:13;;;;;;;12.77;2.75;;;;;;;;;;4969390;28;20038;-81
2021/09/19 10:28:43;;;;;;;14.38;2.63;;;;;;;;;;4954980;28;20415;-80
2021/09/19 10:31:11;;;;;;;9.40;1.85;;;;;;;;;;4961049;28;20185;-81
2021/09/19 10:33:38;;;;;;;13.38;2.30;;;;;;;;;;4968660;28;20029;-82
2021/09/19 10:36:11;;;;;;;11.70;2.35;;;;;;;;;;4971682;28;20125;-81
2021/09/19 10:38:38;;;;;;;15.15;2.70;;;;;;;;;;4954614;28;20342;-81
2021/09/19 10:41:15;;;;;;;13.50;2.33;;;;;;;;;;4958641;28;20053;-81
2021/09/19 10:43:55;;;;;;;11.02;2.10;;;;;;;;;;4953368;28;20054;-82
2021/09/19 10:46:37;;;;;;;15.20;2.22;;;;;;;;;;4962772;28;20484;-80
2021/09/19 10:49:09;;;;;;;8.90;2.17;;;;;;;;;;4972236;28;20034;-82
2021/09/19 10:51:55;;;;;;;9.35;2.05;;;;;;;;;;4953154;28;20045;-82
2021/09/19 10:54:50;;;;;;;10.95;2.00;;;;;;;;;;4960771;28;20403;-80
2021/09/19 10:57:20;;;;;;;7.35;1.40;;;;;;;;;;4959617;28;20042;-80
2021/09/19 11:00:05;;;;;;;8.85;1.88;;;;;;;;;;4957197;28;20534;-81
2021/09/19 11:02:32;;;;;;;11.30;1.83;;;;;;;;;;4967845;28;20073;-81
2021/09/19 11:05:16;;;;;;;10.30;1.95;;;;;;;;;;4960727;28;20292;-83
2021/09/19 11:07:43;;;;;;;9.77;2.00;;;;;;;;;;4952059;28;22454;-81
2021/09/19 11:10:10;;;;;;;11.20;2.10;;;;;;;;;;4958025;28;21905;-81
2021/09/19 11:12:43;;;;;;;12.10;2.17;;;;;;;;;;4955391;28;20022;-80
2021/09/19 11:15:16;;;;;;;10.27;2.10;;;;;;;;;;4962080;28;20448;-81
2021/09/19 11:17:46;;;;;;;11.00;2.47;;;;;;;;;;4955128;28;20264;-80
2021/09/19 11:20:13;;;;;;;10.15;2.20;;;;;;;;;;4960016;28;20096;-81
2021/09/19 11:22:40;;;;;;;8.85;1.73;;;;;;;;;;4971999;28;20058;-81
2021/09/19 11:25:07;;;;;;;11.35;2.45;;;;;;;;;;4957469;28;20034;-80
2021/09/19 11:27:34;;;;;;;7.57;1.58;;;;;;;;;;4968416;28;20030;-80
2021/09/19 11:30:01;;;;;;;10.60;2.20;;;;;;;;;;4977895;28;20499;-83
2021/09/19 11:32:28;;;;;;;8.45;1.90;;;;;;;;;;4973006;28;20676;-80
2021/09/19 11:34:58;;;;;;;11.15;2.40;;;;;;;;;;4959221;28;20049;-81
2021/09/19 11:37:28;;;;;;;11.30;1.80;;;;;;;;;;4960727;28;20626;-82
2021/09/19 11:39:54;;;;;;;12.48;3.20;;;;;;;;;;4958922;28;20129;-80
2021/09/19 11:42:20;;;;;;;8.93;2.05;;;;;;;;;;4973944;28;20043;-82
2021/09/19 11:44:50;;;;;;;11.52;2.03;;;;;;;;;;4954445;28;20116;-80
2021/09/19 11:47:20;;;;;;;9.50;2.00;;;;;;;;;;4959342;28;20042;-82
2021/09/19 11:49:49;;;;;;;11.35;2.20;;;;;;;;;;4968829;28;20038;-80
2021/09/19 11:52:16;;;;;;;9.23;1.95;;;;;;;;;;4957807;28;20049;-80
2021/09/19 11:54:43;;;;;;;10.35;2.00;;;;;;;;;;4953766;28;20030;-81
2021/09/19 11:57:10;;;;;;;11.98;2.10;;;;;;;;;;4956816;28;20030;-81
2021/09/19 11:59:40;;;;;;;12.13;2.08;;;;;;;;;;4967575;28;20528;-80
2021/09/19 12:02:07;;;;;;;11.13;2.13;;;;;;;;;;4952327;28;20075;-80
2021/09/19 12:04:34;;;;;;;10.77;2.25;;;;;;;;;;4952979;28;20037;-80
2021/09/19 12:07:00;;;;;;;12.73;2.22;;;;;;;;;;4957277;28;20052;-81
2021/09/19 12:09:32;;;;;;;12.68;1.88;;;;;;;;;;4958734;28;20030;-80
2021/09/19 12:11:58;;;;;;;10.20;1.83;;;;;;;;;;4959203;28;20053;-81
2021/09/19 12:14:28;;;;;;;11.52;2.42;;;;;;;;;;4954413;28;20044;-81
2021/09/19 12:17:00;;;;;;;11.07;2.10;;;;;;;;;;4961168;28;20250;-81
2021/09/19 12:19:29;;;;;;;10.27;2.22;;;;;;;;;;4971440;28;20030;-82
2021/09/19 12:21:58;;;;;;;9.65;1.67;;;;;;;;;;4957729;28;20053;-81
2021/09/19 12:24:25;;;;;;;9.85;1.80;;;;;;;;;;4954561;28;20042;-81
2021/09/19 12:26:52;;;;;;;9.23;1.90;;;;;;;;;;4971803;28;20175;-81
2021/09/19 12:29:20;;;;;;;9.68;1.75;;;;;;;;;;4973719;28;20100;-81
2021/09/19 12:31:48;;;;;;;12.55;2.40;;;;;;;;;;4957707;28;20039;-80
2021/09/19 12:34:20;;;;;;;13.15;2.85;;;;;;;;;;4972181;28;20038;-80
2021/09/19 12:36:50;;;;;;;12.18;2.22;;;;;;;;;;4943504;28;20031;-81
2021/09/19 12:39:26;;;;;;;8.52;2.20;;;;;;;;;;4961591;28;20385;-80
2021/09/19 12:41:59;;;;;;;8.35;1.98;;;;;;;;;;4975088;28;20038;-81
2021/09/19 12:44:27;;;;;;;9.07;2.60;;;;;;;;;;4957038;28;20109;-80
2021/09/19 12:46:54;;;;;;;10.23;2.08;;;;;;;;;;4961847;28;20133;-82
2021/09/19 12:49:25;;;;;;;11.40;2.47;;;;;;;;;;4964454;28;20038;-82
2021/09/19 12:52:10;;;;;;;12.23;2.85;;;;;;;;;;4961001;28;20034;-82
2021/09/19 12:54:56;;;;;;;8.40;2.00;;;;;;;;;;4959440;28;20030;-82
2021/09/19 12:57:24;;;;;;;10.20;2.22;;;;;;;;;;4963457;28;21098;-81
2021/09/19 12:59:50;;;;;;;9.15;1.55;;;;;;;;;;4945149;28;20133;-82
2021/09/19 13:02:16;;;;;;;10.88;2.08;;;;;;;;;;4960278;28;20035;-82
2021/09/19 13:04:43;;;;;;;8.68;2.00;;;;;;;;;;4957595;28;20039;-82
2021/09/19 13:07:09;;;;;;;9.70;2.00;;;;;;;;;;4961746;28;20042;-82
2021/09/19 13:09:36;;;;;;;9.57;1.80;;;;;;;;;;4956971;28;20546;-82
2021/09/19 13:12:03;;;;;;;11.05;1.98;;;;;;;;;;4974044;28;20566;-82
2021/09/19 13:14:29;;;;;;;9.80;1.75;;;;;;;;;;4957660;28;20038;-80
2021/09/19 13:16:56;;;;;;;9.20;2.03;;;;;;;;;;4975856;28;20046;-80
2021/09/19 13:19:22;;;;;;;7.85;1.90;;;;;;;;;;4963251;28;20038;-81
2021/09/19 13:21:48;;;;;;;10.88;1.95;;;;;;;;;;4958430;28;20035;-80
2021/09/19 13:24:14;;;;;;;9.77;2.03;;;;;;;;;;4955017;28;20026;-83
2021/09/19 13:26:41;;;;;;;10.95;2.00;;;;;;;;;;4960429;28;20030;-80
2021/09/19 13:29:08;;;;;;;13.07;3.00;;;;;;;;;;4960502;28;20046;-80
2021/09/19 13:31:35;;;;;;;10.38;1.92;;;;;;;;;;4956373;28;20039;-83
2021/09/19 13:34:02;;;;;;;10.38;2.28;;;;;;;;;;4975036;28;20035;-83
2021/09/19 13:36:29;;;;;;;9.63;1.98;;;;;;;;;;4959999;28;20028;-82
2021/09/19 13:38:56;;;;;;;9.07;2.08;;;;;;;;;;4963390;28;20076;-80
2021/09/19 13:41:22;;;;;;;13.02;2.30;;;;;;;;;;4962001;28;20042;-81
2021/09/19 13:43:50;;;;;;;9.43;1.63;;;;;;;;;;4957993;28;20030;-81
2021/09/19 13:46:17;;;;;;;10.80;2.33;;;;;;;;;;4959609;28;20031;-81
2021/09/19 13:48:45;;;;;;;11.98;2.53;;;;;;;;;;4955580;28;20124;-81
2021/09/19 13:51:12;;;;;;;9.32;2.10;;;;;;;;;;4969821;28;20104;-82
2021/09/19 13:53:38;;;;;;;9.50;1.90;;;;;;;;;;4961024;28;20043;-82
2021/09/19 13:56:05;;;;;;;11.90;2.28;;;;;;;;;;4964662;28;20165;-82
2021/09/19 13:58:31;;;;;;;8.63;2.25;;;;;;;;;;4959680;28;20049;-82
2021/09/19 14:00:57;;;;;;;9.95;2.50;;;;;;;;;;4960752;28;20042;-81
2021/09/19 14:03:24;;;;;;;10.25;2.13;;;;;;;;;;4976989;28;20178;-81
2021/09/19 14:05:52;;;;;;;11.50;2.33;;;;;;;;;;4964672;28;20499;-82
2021/09/19 14:08:19;;;;;;;9.20;2.00;;;;;;;;;;4960489;28;20030;-81
2021/09/19 14:10:45;;;;;;;11.15;2.08;;;;;;;;;;4972276;28;20126;-81
2021/09/19 14:13:11;;;;;;;9.35;2.17;;;;;;;;;;4962225;28;20073;-81
2021/09/19 14:15:37;;;;;;;10.05;2.05;;;;;;;;;;4970640;28;20027;-82
2021/09/19 14:18:04;;;;;;;11.02;1.88;;;;;;;;;;4977992;28;20030;-82
2021/09/19 14:20:54;;;;;;;10.38;2.25;;;;;;;;;;4960631;28;20177;-81
2021/09/19 14:23:20;;;;;;;10.85;2.40;;;;;;;;;;4959903;28;20120;-81
2021/09/19 14:25:47;;;;;;;10.13;2.65;;;;;;;;;;4954885;28;20432;-81
2021/09/19 14:28:13;;;;;;;7.00;1.80;;;;;;;;;;4974276;28;20034;-82
2021/09/19 14:30:39;;;;;;;11.68;2.10;;;;;;;;;;4969265;28;20941;-81
2021/09/19 14:33:05;;;;;;;9.70;2.05;;;;;;;;;;4974531;28;20061;-82
2021/09/19 14:35:32;;;;;;;9.68;1.83;;;;;;;;;;4955537;28;20516;-82